Time;durP1;ratioP1;P1;durP2;ratioP2;P2;SDS_P1;SDS_P2;PMS_P1;PMS_P2;Temp;Humidity;BMP_temperature;BMP_pressure;BME280_temperature;BME280_humidity;BME280_pressure;Samples;Min_cycle;Max_cycle;Signal;HPM_P1;HPM_P2
2022/12/07 00:01:15;;;;;;;7.22;3.13;;;;;;;-3.39;100.00;102318.22;5015091;28;20460;-75
2022/12/07 00:03:42;;;;;;;13.38;4.00;;;;;;;-3.35;100.00;102319.88;5015679;28;20033;-73
2022/12/07 00:06:11;;;;;;;8.93;4.25;;;;;;;-3.30;100.00;102311.84;5048382;28;20114;-73
2022/12/07 00:08:37;;;;;;;10.57;4.05;;;;;;;-3.35;100.00;102290.94;5031966;28;20025;-73
2022/12/07 00:11:15;;;;;;;8.80;3.65;;;;;;;-3.21;100.00;102307.13;5032015;28;20464;-73
2022/12/07 00:13:41;;;;;;;8.07;4.10;;;;;;;-3.13;100.00;102305.09;5015164;28;20136;-73
2022/12/07 00:16:12;;;;;;;7.68;4.00;;;;;;;-2.98;100.00;102310.81;4999229;28;20277;-73
2022/12/07 00:18:38;;;;;;;10.50;4.82;;;;;;;-2.95;100.00;102308.06;4998977;28;20120;-73
2022/12/07 00:21:13;;;;;;;7.72;3.78;;;;;;;-2.86;100.00;102302.47;4999319;28;20095;-73
2022/12/07 00:23:40;;;;;;;10.07;3.97;;;;;;;-2.80;100.00;102304.06;5031922;28;20495;-73
2022/12/07 00:26:31;;;;;;;12.38;5.68;;;;;;;-2.87;100.00;102290.25;5031831;28;20065;-73
2022/12/07 00:29:00;;;;;;;6.03;4.13;;;;;;;-2.76;100.00;102297.78;5013730;28;20049;-72
2022/12/07 00:31:28;;;;;;;8.77;4.60;;;;;;;-2.68;100.00;102303.63;5015438;28;20032;-73
2022/12/07 00:33:54;;;;;;;8.93;4.00;;;;;;;-2.63;100.00;102298.22;5015449;28;20037;-73
2022/12/07 00:36:22;;;;;;;7.32;3.65;;;;;;;-2.74;100.00;102291.53;5031619;28;20036;-73
2022/12/07 00:38:54;;;;;;;13.55;6.03;;;;;;;-2.83;100.00;102305.03;4999469;28;20099;-74
2022/12/07 00:41:22;;;;;;;10.83;5.47;;;;;;;-2.94;100.00;102310.66;5015468;28;20091;-73
2022/12/07 00:43:48;;;;;;;9.02;4.65;;;;;;;-3.08;100.00;102290.97;5015507;28;20116;-73
2022/12/07 00:46:15;;;;;;;14.13;5.65;;;;;;;-3.09;100.00;102295.38;5031743;28;20537;-74
2022/12/07 00:48:41;;;;;;;8.93;4.38;;;;;;;-3.12;100.00;102303.38;4999010;28;20116;-73
2022/12/07 00:51:07;;;;;;;8.00;4.03;;;;;;;-3.03;100.00;102304.81;5031637;28;20100;-73
2022/12/07 00:53:37;;;;;;;8.27;4.68;;;;;;;-3.04;100.00;102300.44;4998965;28;20072;-73
2022/12/07 00:56:14;;;;;;;8.52;3.95;;;;;;;-3.08;100.00;102296.22;5014690;28;20434;-75
2022/12/07 00:58:39;;;;;;;7.28;4.50;;;;;;;-3.01;100.00;102305.66;5031684;28;20116;-73
2022/12/07 01:01:07;;;;;;;10.25;4.10;;;;;;;-3.08;100.00;102293.59;4999035;28;20186;-73
2022/12/07 01:03:33;;;;;;;9.85;4.55;;;;;;;-3.13;100.00;102299.84;5031760;28;20075;-74
2022/12/07 01:05:59;;;;;;;8.20;4.20;;;;;;;-3.20;100.00;102300.09;5031171;28;20105;-73
2022/12/07 01:08:26;;;;;;;4.70;2.78;;;;;;;-3.27;100.00;102294.19;5031348;28;20167;-73
2022/12/07 01:10:59;;;;;;;8.05;3.70;;;;;;;-3.21;100.00;102301.88;4998766;28;20041;-73
2022/12/07 01:13:25;;;;;;;6.57;4.03;;;;;;;-2.87;100.00;102284.97;5033679;28;20026;-73
2022/12/07 01:15:50;;;;;;;8.30;4.05;;;;;;;-1.92;100.00;102302.66;5002252;28;20128;-74
2022/12/07 01:18:16;;;;;;;4.18;3.55;;;;;;;-1.78;100.00;102300.34;5002310;28;20021;-73
2022/12/07 01:20:42;;;;;;;6.20;3.40;;;;;;;-1.51;100.00;102296.72;5002081;28;20125;-73
2022/12/07 01:23:07;;;;;;;4.45;2.50;;;;;;;-1.17;100.00;102302.38;5002302;28;20091;-73
2022/12/07 01:25:33;;;;;;;2.53;1.60;;;;;;;-0.91;100.00;102303.94;5002150;28;20462;-74
2022/12/07 01:27:59;;;;;;;9.80;4.13;;;;;;;-0.71;100.00;102295.19;5001813;28;20037;-73
2022/12/07 01:30:25;;;;;;;3.92;2.53;;;;;;;-0.50;100.00;102287.28;5001697;28;20040;-73
2022/12/07 01:32:50;;;;;;;10.95;4.93;;;;;;;-0.35;100.00;102286.56;5018252;28;20037;-73
2022/12/07 01:35:16;;;;;;;9.68;4.25;;;;;;;-0.27;100.00;102286.22;5034774;28;20038;-73
2022/12/07 01:37:42;;;;;;;6.72;4.30;;;;;;;-0.18;100.00;102285.84;5001526;28;20034;-74
2022/12/07 01:40:09;;;;;;;6.47;3.83;;;;;;;-0.16;100.00;102289.28;5001479;28;20037;-73
2022/12/07 01:42:35;;;;;;;10.80;4.63;;;;;;;-0.24;100.00;102283.44;5034695;28;20095;-73
2022/12/07 01:45:28;;;;;;;15.50;2.95;;;;;;;-0.28;100.00;102287.19;5001793;28;20029;-73
2022/12/07 01:47:56;;;;;;;8.52;4.13;;;;;;;-0.32;100.00;102280.28;5017638;28;20083;-73
2022/12/07 01:50:24;;;;;;;6.95;3.33;;;;;;;-0.34;100.00;102290.94;5001326;28;20039;-73
2022/12/07 01:52:51;;;;;;;8.55;4.30;;;;;;;-0.43;100.00;102290.50;5034189;28;20095;-73
2022/12/07 01:55:17;;;;;;;8.93;3.75;;;;;;;-0.59;100.00;102288.50;5001600;28;20095;-73
2022/12/07 01:57:47;;;;;;;8.73;4.60;;;;;;;-0.69;100.00;102276.63;5000967;28;20551;-74
2022/12/07 02:00:13;;;;;;;11.65;4.50;;;;;;;-0.73;100.00;102280.34;5017718;28;20040;-73
2022/12/07 02:03:28;;;;;;;7.82;4.18;;;;;;;-0.74;100.00;102284.75;5017830;28;20033;-73
2022/12/07 02:05:54;;;;;;;11.88;4.35;;;;;;;-0.76;100.00;102280.47;5019545;28;20393;-73
2022/12/07 02:08:20;;;;;;;14.60;4.47;;;;;;;-0.81;100.00;102278.00;5000907;28;20040;-73
2022/12/07 02:10:45;;;;;;;7.18;3.70;;;;;;;-0.91;100.00;102277.53;5017805;28;20425;-74
2022/12/07 02:13:17;;;;;;;7.25;4.28;;;;;;;-0.96;100.00;102283.94;5000807;28;20067;-73
2022/12/07 02:16:07;;;;;;;7.72;4.15;;;;;;;-1.01;100.00;102280.63;5017566;28;20061;-73
2022/12/07 02:19:01;;;;;;;6.20;3.90;;;;;;;-1.07;100.00;102273.81;5034868;28;20104;-72
2022/12/07 02:21:47;;;;;;;8.68;4.50;;;;;;;-1.18;100.00;102276.03;5033551;28;20026;-74
2022/12/07 02:24:28;;;;;;;10.23;4.03;;;;;;;-1.29;100.00;102279.13;5016630;28;20034;-73
2022/12/07 02:27:07;;;;;;;10.57;4.63;;;;;;;-1.36;100.00;102280.28;5017459;28;20037;-73
2022/12/07 02:30:13;;;;;;;7.82;4.43;;;;;;;-1.37;100.00;102279.44;5016725;28;20041;-73
2022/12/07 02:32:44;;;;;;;8.30;4.25;;;;;;;-1.44;100.00;102256.84;4995980;28;20113;-74
2022/12/07 02:35:19;;;;;;;10.77;4.82;;;;;;;-1.29;100.00;102278.28;5027280;28;20038;-73
2022/12/07 02:38:02;;;;;;;10.32;4.88;;;;;;;-1.19;100.00;102269.03;5017126;28;20037;-73
2022/12/07 02:40:35;;;;;;;8.93;4.90;;;;;;;-1.06;100.00;102266.75;5017191;28;20071;-73
2022/12/07 02:43:12;;;;;;;8.50;4.75;;;;;;;-1.07;100.00;102247.41;5016724;28;20041;-74
2022/12/07 02:45:40;;;;;;;8.57;4.35;;;;;;;-0.89;100.00;102262.50;5033028;28;20133;-73
2022/12/07 02:48:07;;;;;;;10.20;6.18;;;;;;;-0.81;100.00;102261.31;5000454;28;20392;-73
2022/12/07 02:50:33;;;;;;;13.35;7.90;;;;;;;-0.74;100.00;102266.28;5000298;28;20040;-73
2022/12/07 02:52:58;;;;;;;11.82;6.43;;;;;;;-0.71;100.00;102265.28;5033322;28;20033;-73
2022/12/07 02:55:31;;;;;;;71.53;33.78;;;;;;;-0.69;100.00;102268.69;5033223;28;20373;-73
2022/12/07 02:58:06;;;;;;;47.17;25.27;;;;;;;-0.74;100.00;102258.34;5016773;28;20037;-73
2022/12/07 03:00:37;;;;;;;47.75;24.85;;;;;;;-0.72;100.00;102266.19;5033104;28;20065;-74
2022/12/07 03:03:10;;;;;;;32.65;16.50;;;;;;;-0.74;100.00;102258.34;4999708;28;20057;-73
2022/12/07 03:05:50;;;;;;;33.20;18.20;;;;;;;-0.70;100.00;102253.78;5016225;28;20025;-73
2022/12/07 03:08:37;;;;;;;14.30;8.60;;;;;;;-0.65;100.00;102264.16;5016386;28;20498;-72
2022/12/07 03:11:06;;;;;;;18.10;9.07;;;;;;;-0.62;100.00;102256.09;5033891;28;20021;-73
2022/12/07 03:14:11;;;;;;;18.42;10.65;;;;;;;-0.60;100.00;102252.47;5016179;28;20025;-73
2022/12/07 03:16:41;;;;;;;7.25;4.32;;;;;;;-0.65;100.00;102243.88;5014811;28;20040;-73
2022/12/07 03:19:10;;;;;;;13.13;6.93;;;;;;;-0.62;100.00;102250.81;5016236;28;20068;-73
2022/12/07 03:21:40;;;;;;;9.75;5.72;;;;;;;-0.61;100.00;102257.78;5032515;28;20487;-73
2022/12/07 03:24:18;;;;;;;8.00;4.28;;;;;;;-0.62;100.00;102256.94;5032034;28;20056;-73
2022/12/07 03:26:54;;;;;;;6.38;4.60;;;;;;;-0.70;100.00;102244.06;5049083;28;20025;-74
2022/12/07 03:29:28;;;;;;;13.70;5.30;;;;;;;-0.68;100.00;102257.22;5015938;28;20045;-73
2022/12/07 03:31:59;;;;;;;2.90;2.38;;;;;;;-0.70;100.00;102246.72;5016505;28;20549;-74
2022/12/07 03:34:31;;;;;;;9.35;4.60;;;;;;;-0.67;100.00;102251.00;5032039;28;20025;-73
2022/12/07 03:37:04;;;;;;;8.52;5.20;;;;;;;-0.67;100.00;102251.84;4999366;28;20404;-73
2022/12/07 03:40:07;;;;;;;9.98;5.70;;;;;;;-0.69;100.00;102252.84;5032543;28;20360;-73
2022/12/07 03:42:33;;;;;;;9.88;5.20;;;;;;;-0.71;100.00;102255.56;5032311;28;20095;-74
2022/12/07 03:45:01;;;;;;;7.38;4.65;;;;;;;-0.88;100.00;102221.09;4999450;28;20029;-73
2022/12/07 03:47:39;;;;;;;10.65;5.35;;;;;;;-0.69;100.00;102247.56;4999531;28;20033;-74
2022/12/07 03:50:46;;;;;;;10.68;5.63;;;;;;;-0.86;100.00;102221.03;5015758;28;20415;-73
2022/12/07 03:53:27;;;;;;;11.50;4.68;;;;;;;-0.93;100.00;102216.03;4995159;28;20055;-73
2022/12/07 03:55:54;;;;;;;7.68;4.40;;;;;;;-0.80;100.00;102241.88;5010055;28;20033;-74
2022/12/07 03:58:21;;;;;;;11.32;4.93;;;;;;;-0.86;100.00;102237.72;5014734;28;20056;-74
2022/12/07 04:00:49;;;;;;;8.32;5.13;;;;;;;-0.84;100.00;102240.31;5015754;28;20047;-73
2022/12/07 04:03:14;;;;;;;8.13;4.43;;;;;;;-0.96;100.00;102223.19;5032062;28;20054;-73
2022/12/07 04:05:40;;;;;;;4.53;2.35;;;;;;;-0.84;100.00;102245.59;5015609;28;20037;-74
2022/12/07 04:08:06;;;;;;;8.20;4.70;;;;;;;-0.84;100.00;102235.03;4999133;28;20490;-74
2022/12/07 04:10:32;;;;;;;9.80;5.50;;;;;;;-0.92;100.00;102233.56;4999367;28;20459;-73
2022/12/07 04:12:58;;;;;;;6.78;4.35;;;;;;;-0.99;100.00;102223.34;4999520;28;20049;-73
2022/12/07 04:15:24;;;;;;;7.53;4.68;;;;;;;-0.97;100.00;102234.69;4999564;28;20430;-73
2022/12/07 04:17:50;;;;;;;10.25;5.30;;;;;;;-0.92;100.00;102230.94;4999281;28;20590;-73
2022/12/07 04:20:16;;;;;;;9.35;5.03;;;;;;;-0.91;100.00;102224.72;5015574;28;20052;-73
2022/12/07 04:22:42;;;;;;;7.60;5.40;;;;;;;-0.89;100.00;102229.94;4999372;28;20034;-74
2022/12/07 04:25:08;;;;;;;8.50;5.53;;;;;;;-0.89;100.00;102227.31;5015643;28;20041;-73
2022/12/07 04:27:34;;;;;;;9.68;5.53;;;;;;;-0.89;100.00;102228.16;4999107;28;20434;-74
2022/12/07 04:29:59;;;;;;;8.18;4.72;;;;;;;-0.93;100.00;102223.94;4999237;28;20036;-74
2022/12/07 04:32:25;;;;;;;9.52;5.28;;;;;;;-0.90;100.00;102231.75;5031799;28;20119;-73
2022/12/07 04:34:51;;;;;;;8.70;4.40;;;;;;;-0.89;100.00;102229.94;5015225;28;20048;-74
2022/12/07 04:37:17;;;;;;;9.95;5.60;;;;;;;-0.83;100.00;102231.47;4999091;28;20033;-74
2022/12/07 04:39:44;;;;;;;9.38;4.90;;;;;;;-0.79;100.00;102223.34;4998626;28;20040;-73
2022/12/07 04:42:10;;;;;;;9.05;5.47;;;;;;;-0.72;100.00;102224.78;5015683;28;20771;-73
2022/12/07 04:44:36;;;;;;;9.48;5.72;;;;;;;-0.72;100.00;102214.22;5031386;28;20034;-73
2022/12/07 04:47:02;;;;;;;10.60;5.90;;;;;;;-0.68;100.00;102217.59;4999971;28;20036;-74
2022/12/07 04:49:28;;;;;;;11.77;4.88;;;;;;;-0.65;100.00;102216.59;5035250;28;20494;-73
2022/12/07 04:51:54;;;;;;;10.75;5.72;;;;;;;-0.60;100.00;102207.53;5051843;28;20030;-73
2022/12/07 04:54:20;;;;;;;6.97;4.47;;;;;;;-0.63;100.00;102212.97;5002964;28;20468;-73
2022/12/07 04:56:45;;;;;;;10.15;5.57;;;;;;;-0.62;100.00;102212.03;5002747;28;20063;-74
2022/12/07 04:59:12;;;;;;;12.02;5.68;;;;;;;-0.61;100.00;102216.38;5002932;28;20037;-73
2022/12/07 05:01:38;;;;;;;10.43;4.90;;;;;;;-0.58;100.00;102216.28;5018869;28;20096;-73
2022/12/07 05:04:04;;;;;;;9.23;5.13;;;;;;;-0.57;100.00;102220.63;5019024;28;20060;-73
2022/12/07 05:06:29;;;;;;;8.80;5.20;;;;;;;-0.54;100.00;102222.25;5002399;28;20052;-73
2022/12/07 05:08:55;;;;;;;10.25;5.43;;;;;;;-0.55;100.00;102210.84;5002256;28;20036;-73
2022/12/07 05:11:40;;;;;;;9.85;5.63;;;;;;;-0.50;100.00;102208.00;5019107;28;20132;-73
2022/12/07 05:14:05;;;;;;;12.35;4.97;;;;;;;-0.46;100.00;102206.91;5018737;28;20037;-73
2022/12/07 05:16:31;;;;;;;6.65;4.68;;;;;;;-0.43;100.00;102205.94;5018697;28;20099;-73
2022/12/07 05:18:57;;;;;;;7.85;5.35;;;;;;;-0.40;100.00;102209.28;5002203;28;20434;-73
2022/12/07 05:21:23;;;;;;;8.88;5.18;;;;;;;-0.41;100.00;102202.28;5002452;28;20037;-73
2022/12/07 05:23:49;;;;;;;17.20;6.10;;;;;;;-0.40;100.00;102205.78;5001989;28;20064;-73
2022/12/07 05:26:15;;;;;;;9.68;5.30;;;;;;;-0.36;100.00;102215.31;5018497;28;20025;-73
2022/12/07 05:28:40;;;;;;;10.57;6.30;;;;;;;-0.37;100.00;102208.28;5002092;28;20116;-73
2022/12/07 05:31:06;;;;;;;10.98;5.72;;;;;;;-0.36;100.00;102213.50;5002227;28;20026;-73
2022/12/07 05:33:32;;;;;;;11.43;5.72;;;;;;;-0.35;100.00;102207.28;5018341;28;20037;-73
2022/12/07 05:35:58;;;;;;;11.07;5.68;;;;;;;-0.36;100.00;102215.31;5001990;28;20140;-74
2022/12/07 05:38:24;;;;;;;12.50;6.25;;;;;;;-0.40;100.00;102192.56;5035392;28;20030;-73
2022/12/07 05:40:51;;;;;;;9.23;5.03;;;;;;;-0.54;100.00;102191.41;5018376;28;20099;-74
2022/12/07 05:43:17;;;;;;;8.45;5.07;;;;;;;-0.86;100.00;102197.28;5017956;28;20395;-73
2022/12/07 05:45:45;;;;;;;13.93;5.65;;;;;;;-1.23;100.00;102185.66;5018067;28;20136;-73
2022/12/07 05:48:10;;;;;;;8.65;4.75;;;;;;;-1.50;100.00;102191.16;5017540;28;20037;-73
2022/12/07 05:50:36;;;;;;;12.95;5.68;;;;;;;-1.80;100.00;102191.47;5034064;28;20106;-73
2022/12/07 05:53:02;;;;;;;10.95;4.75;;;;;;;-1.98;100.00;102186.91;5017537;28;20053;-74
2022/12/07 05:55:27;;;;;;;8.38;5.55;;;;;;;-2.11;100.00;102178.63;5017686;28;20516;-73
2022/12/07 06:00:37;;;;;;;6.97;4.80;;;;;;;-2.46;100.00;102182.56;5019989;28;20467;-73
2022/12/07 06:03:03;;;;;;;8.07;4.50;;;;;;;-2.51;100.00;102180.13;5017742;28;20036;-74
2022/12/07 06:05:28;;;;;;;8.70;3.95;;;;;;;-2.60;100.00;102182.25;5017911;28;20095;-73
2022/12/07 06:07:54;;;;;;;7.97;4.18;;;;;;;-2.76;100.00;102177.53;5001095;28;20032;-73
2022/12/07 06:10:20;;;;;;;7.82;4.25;;;;;;;-2.90;100.00;102179.81;5001447;28;20033;-73
2022/12/07 06:12:46;;;;;;;4.93;3.40;;;;;;;-2.90;100.00;102180.66;5017510;28;20033;-74
2022/12/07 06:15:12;;;;;;;9.50;4.00;;;;;;;-2.92;100.00;102181.63;5001191;28;20029;-73
2022/12/07 06:17:39;;;;;;;8.75;3.78;;;;;;;-2.87;100.00;102183.19;5017666;28;20037;-74
2022/12/07 06:20:06;;;;;;;4.68;3.55;;;;;;;-2.78;100.00;102183.75;5016526;28;20091;-73
2022/12/07 06:22:31;;;;;;;5.00;3.33;;;;;;;-2.94;100.00;102146.59;5000703;28;20075;-75
2022/12/07 06:24:57;;;;;;;6.50;3.38;;;;;;;-2.83;100.00;102165.53;5000967;28;20029;-74
2022/12/07 06:27:25;;;;;;;5.47;3.50;;;;;;;-2.76;100.00;102172.25;5016885;28;20032;-74
2022/12/07 06:29:51;;;;;;;7.35;4.15;;;;;;;-2.73;100.00;102177.41;5000551;28;20184;-73
2022/12/07 06:32:16;;;;;;;9.02;3.58;;;;;;;-2.73;100.00;102182.66;5000669;28;20117;-73
2022/12/07 06:34:42;;;;;;;4.75;2.83;;;;;;;-2.71;100.00;102180.00;5000503;28;20391;-73
2022/12/07 06:37:08;;;;;;;7.75;3.40;;;;;;;-2.96;100.00;102164.25;5017228;28;20176;-74
2022/12/07 06:39:33;;;;;;;6.13;3.30;;;;;;;-3.03;100.00;102178.50;5000676;28;20033;-73
2022/12/07 06:41:59;;;;;;;4.43;2.92;;;;;;;-3.10;100.00;102169.97;5016887;28;20040;-73
2022/12/07 06:44:25;;;;;;;6.22;3.33;;;;;;;-3.13;100.00;102162.19;5033102;28;20356;-73
2022/12/07 06:46:51;;;;;;;6.78;3.17;;;;;;;-3.16;100.00;102160.50;5000466;28;20040;-73
2022/12/07 06:49:17;;;;;;;8.70;3.80;;;;;;;-3.24;100.00;102164.31;5000017;28;20119;-74
2022/12/07 06:51:43;;;;;;;5.50;3.00;;;;;;;-3.36;100.00;102163.84;5000638;28;20033;-74
2022/12/07 06:54:13;;;;;;;6.45;3.40;;;;;;;-3.54;100.00;102156.56;5032793;28;20344;-73
2022/12/07 06:56:39;;;;;;;5.28;3.35;;;;;;;-3.65;100.00;102161.28;5016360;28;20489;-73
2022/12/07 06:59:06;;;;;;;4.15;3.08;;;;;;;-3.87;100.00;102148.00;5000254;28;20029;-73
2022/12/07 07:01:33;;;;;;;2.40;1.48;;;;;;;-3.81;100.00;102155.66;5033036;28;20025;-73
2022/12/07 07:03:59;;;;;;;5.63;3.00;;;;;;;-3.82;100.00;102152.19;5000400;28;20052;-73
2022/12/07 07:06:25;;;;;;;4.28;2.40;;;;;;;-3.83;100.00;102152.25;5016153;28;20033;-74
2022/12/07 07:08:50;;;;;;;7.00;3.90;;;;;;;-3.89;100.00;102152.44;5000029;28;20040;-73
2022/12/07 07:11:16;;;;;;;7.50;3.97;;;;;;;-3.85;100.00;102159.31;4999309;28;20033;-73
2022/12/07 07:13:42;;;;;;;7.20;3.50;;;;;;;-3.85;100.00;102161.94;5000054;28;20060;-73
2022/12/07 07:16:08;;;;;;;6.18;3.03;;;;;;;-3.72;100.00;102173.78;5016054;28;20462;-74
2022/12/07 07:18:34;;;;;;;5.60;2.97;;;;;;;-3.71;100.00;102170.25;5032604;28;20040;-73
2022/12/07 07:21:00;;;;;;;6.57;3.75;;;;;;;-3.72;100.00;102165.91;5015982;28;20495;-73
2022/12/07 07:23:26;;;;;;;4.57;3.50;;;;;;;-3.74;100.00;102167.72;5016363;28;20037;-74
2022/12/07 07:25:52;;;;;;;3.53;2.67;;;;;;;-3.82;100.00;102172.38;4999917;28;20037;-73
2022/12/07 07:28:18;;;;;;;8.98;2.75;;;;;;;-3.83;100.00;102173.28;5016209;28;20030;-73
2022/12/07 07:30:44;;;;;;;3.80;2.80;;;;;;;-3.76;100.00;102182.66;5015958;28;20442;-72
2022/12/07 07:33:10;;;;;;;3.78;2.47;;;;;;;-3.79;100.00;102177.50;4999363;28;20045;-74
2022/12/07 07:35:36;;;;;;;5.82;2.95;;;;;;;-3.91;100.00;102165.63;5015850;28;20045;-73
2022/12/07 07:38:02;;;;;;;4.50;2.78;;;;;;;-3.92;100.00;102170.94;5031957;28;20479;-73
2022/12/07 07:40:29;;;;;;;5.90;2.80;;;;;;;-3.97;100.00;102168.44;4999573;28;20041;-74
2022/12/07 07:42:55;;;;;;;6.80;3.58;;;;;;;-3.89;100.00;102173.44;4999469;28;20043;-73
2022/12/07 07:45:23;;;;;;;10.18;4.22;;;;;;;-3.89;100.00;102170.81;4999544;28;20041;-73
2022/12/07 07:47:49;;;;;;;9.30;3.75;;;;;;;-3.96;100.00;102162.28;5015261;28;20037;-73
2022/12/07 07:50:15;;;;;;;7.82;3.42;;;;;;;-3.96;100.00;102178.06;5015757;28;20463;-74
2022/12/07 07:52:42;;;;;;;10.40;4.15;;;;;;;-3.88;100.00;102169.94;4998865;28;20061;-73
2022/12/07 07:55:10;;;;;;;12.23;4.35;;;;;;;-3.81;100.00;102172.31;5015891;28;20044;-73
2022/12/07 07:57:37;;;;;;;10.38;4.15;;;;;;;-3.81;100.00;102174.97;4999835;28;20026;-73
2022/12/07 08:00:11;;;;;;;7.88;4.05;;;;;;;-3.86;100.00;102176.00;4999636;28;20025;-73
2022/12/07 08:02:37;;;;;;;8.25;3.78;;;;;;;-3.92;100.00;102163.91;5048410;28;20022;-73
2022/12/07 08:05:03;;;;;;;13.93;5.10;;;;;;;-4.09;100.00;102159.19;4999523;28;20468;-73
2022/12/07 08:07:29;;;;;;;11.48;4.90;;;;;;;-4.19;100.00;102173.50;4998922;28;20087;-73
2022/12/07 08:09:54;;;;;;;11.25;5.13;;;;;;;-4.34;100.00;102171.31;4999521;28;20427;-73
2022/12/07 08:12:20;;;;;;;9.93;4.10;;;;;;;-4.48;100.00;102164.72;4999224;28;20082;-74
2022/12/07 08:14:46;;;;;;;12.80;4.78;;;;;;;-4.54;100.00;102172.78;4999143;28;20114;-73
2022/12/07 08:17:12;;;;;;;8.75;4.57;;;;;;;-4.58;100.00;102178.16;4999381;28;20064;-74
2022/12/07 08:19:38;;;;;;;8.52;5.07;;;;;;;-4.69;100.00;102173.22;4999241;28;20057;-73
2022/12/07 08:22:03;;;;;;;9.65;3.67;;;;;;;-4.67;100.00;102179.28;4999800;28;20068;-73
2022/12/07 08:24:29;;;;;;;10.50;4.15;;;;;;;-4.62;100.00;102180.00;5036117;28;20406;-74
2022/12/07 08:26:55;;;;;;;11.30;4.95;;;;;;;-4.66;100.00;102184.50;5018796;28;20030;-73
2022/12/07 08:29:21;;;;;;;12.07;4.85;;;;;;;-4.52;100.00;102180.63;5035620;28;20037;-73
2022/12/07 08:31:46;;;;;;;9.38;5.85;;;;;;;-4.39;100.00;102178.47;5035750;28;20029;-73
2022/12/07 08:34:13;;;;;;;12.43;6.60;;;;;;;-4.36;100.00;102175.78;5003074;28;20360;-73
2022/12/07 08:36:39;;;;;;;10.73;5.78;;;;;;;-4.38;100.00;102169.72;5019081;28;20049;-74
2022/12/07 08:39:05;;;;;;;11.93;5.40;;;;;;;-4.39;100.00;102167.97;5003183;28;20395;-73
2022/12/07 08:41:32;;;;;;;9.40;4.80;;;;;;;-4.39;100.00;102170.59;5019211;28;20037;-73
2022/12/07 08:43:58;;;;;;;10.00;5.30;;;;;;;-4.39;100.00;102165.34;5035378;28;20044;-73
2022/12/07 08:46:32;;;;;;;9.02;4.55;;;;;;;-4.48;100.00;102172.59;5003292;28;20033;-73
2022/12/07 08:49:02;;;;;;;7.30;4.03;;;;;;;-4.46;100.00;102172.56;5035539;28;20116;-73
2022/12/07 08:51:31;;;;;;;7.18;4.35;;;;;;;-4.51;100.00;102167.44;5018945;28;20479;-73
2022/12/07 08:53:58;;;;;;;8.27;4.05;;;;;;;-4.50;100.00;102182.28;5019024;28;20057;-73
2022/12/07 08:56:24;;;;;;;7.30;4.32;;;;;;;-4.38;100.00;102177.59;5019061;28;20567;-73
2022/12/07 08:58:50;;;;;;;12.00;4.68;;;;;;;-4.34;100.00;102174.84;5018845;28;20189;-74
2022/12/07 09:01:16;;;;;;;10.02;5.80;;;;;;;-4.23;100.00;102179.75;5035208;28;20424;-73
2022/12/07 09:03:41;;;;;;;11.95;6.30;;;;;;;-4.15;100.00;102163.75;5002380;28;20033;-73
2022/12/07 09:06:08;;;;;;;19.30;9.10;;;;;;;-4.05;100.00;102171.31;5036135;28;20076;-74
2022/12/07 09:08:37;;;;;;;10.65;6.32;;;;;;;-3.96;100.00;102182.47;5001845;28;20033;-73
2022/12/07 09:11:03;;;;;;;14.07;7.45;;;;;;;-3.95;100.00;102171.03;5034511;28;20021;-74
2022/12/07 09:13:28;;;;;;;27.75;13.82;;;;;;;-3.99;100.00;102170.28;5001748;28;20048;-73
2022/12/07 09:15:54;;;;;;;14.02;7.85;;;;;;;-4.01;100.00;102169.47;5018404;28;20041;-74
2022/12/07 09:18:20;;;;;;;11.75;7.65;;;;;;;-3.85;100.00;102157.56;5001750;28;20062;-74
2022/12/07 09:20:46;;;;;;;10.73;6.30;;;;;;;-3.64;100.00;102161.25;5002224;28;20430;-74
2022/12/07 09:23:11;;;;;;;11.80;6.85;;;;;;;-3.53;100.00;102156.50;5002163;28;20029;-73
2022/12/07 09:25:37;;;;;;;15.40;7.57;;;;;;;-3.47;100.00;102160.69;5034543;28;20372;-74
2022/12/07 09:28:03;;;;;;;18.63;9.60;;;;;;;-3.39;100.00;102173.59;5002123;28;20033;-74
2022/12/07 09:30:28;;;;;;;21.02;11.27;;;;;;;-3.43;100.00;102166.72;5018357;28;20087;-73
2022/12/07 09:32:56;;;;;;;30.90;16.13;;;;;;;-3.13;100.00;102178.81;5018161;28;20061;-73
2022/12/07 09:35:22;;;;;;;13.88;7.93;;;;;;;-2.60;100.00;102185.72;5017681;28;20055;-74
2022/12/07 09:37:48;;;;;;;15.80;10.82;;;;;;;-2.35;100.00;102172.53;5018086;28;20037;-73
2022/12/07 09:40:15;;;;;;;18.35;10.60;;;;;;;-2.08;100.00;102175.00;5018061;28;20376;-77
2022/12/07 09:42:47;;;;;;;18.83;10.68;;;;;;;-1.83;100.00;102186.28;5034543;28;20104;-76
2022/12/07 09:45:26;;;;;;;15.57;9.63;;;;;;;-1.71;100.00;102168.28;5034211;28;20467;-77
2022/12/07 09:47:55;;;;;;;18.73;9.77;;;;;;;-0.58;100.00;102181.03;5018267;28;20033;-77
2022/12/07 09:50:25;;;;;;;32.22;14.60;;;;;;;-0.66;100.00;102184.06;5002044;28;20037;-77
2022/12/07 09:52:52;;;;;;;25.52;12.98;;;;;;;-0.34;100.00;102172.03;5018412;28;20104;-77
2022/12/07 09:55:29;;;;;;;19.55;11.60;;;;;;;0.25;100.00;102174.56;5018118;28;20037;-77
2022/12/07 09:57:54;;;;;;;12.43;7.35;;;;;;;0.21;100.00;102166.78;5001926;28;20069;-77
2022/12/07 10:00:25;;;;;;;6.35;4.00;;;;;;;0.76;100.00;102170.25;5034539;28;20033;-77
2022/12/07 10:02:57;;;;;;;8.32;5.18;;;;;;;1.16;100.00;102158.44;5034492;28;20029;-77
2022/12/07 10:05:37;;;;;;;12.68;7.00;;;;;;;2.06;100.00;102149.16;5001669;28;20033;-78
2022/12/07 10:08:03;;;;;;;14.18;7.50;;;;;;;3.45;100.00;102159.50;5017931;28;20494;-76
2022/12/07 10:10:34;;;;;;;11.27;7.47;;;;;;;4.53;96.89;102157.94;5033869;28;20041;-76
2022/12/07 10:13:05;;;;;;;15.52;7.60;;;;;;;5.37;93.80;102153.94;5033641;28;20475;-77
2022/12/07 10:16:01;;;;;;;8.55;5.65;;;;;;;6.25;89.37;102154.75;5000823;28;20037;-77
2022/12/07 10:18:41;;;;;;;9.18;5.88;;;;;;;6.94;87.46;102152.22;5024267;28;20045;-77
2022/12/07 10:21:24;;;;;;;11.10;5.22;;;;;;;7.53;82.54;102155.69;5034508;28;20033;-77
2022/12/07 10:24:00;;;;;;;;;;;;;;;7.88;81.37;102158.19;5017668;28;20120;-77
2022/12/07 10:26:29;;;;;;;8.40;6.55;;;;;;;7.70;82.36;102153.38;5034024;28;19913;-77
2022/12/07 10:28:58;;;;;;;8.00;4.78;;;;;;;7.51;83.77;102152.28;5033839;28;20030;-77
2022/12/07 10:31:27;;;;;;;8.52;5.50;;;;;;;7.25;83.89;102125.72;5033917;28;20060;-77
2022/12/07 10:33:58;;;;;;;11.98;6.88;;;;;;;7.37;85.78;102135.47;5034134;28;20021;-77
2022/12/07 10:36:38;;;;;;;8.82;5.70;;;;;;;7.09;87.15;102138.63;5033923;28;20048;-77
2022/12/07 10:39:12;;;;;;;9.23;4.88;;;;;;;7.10;84.24;102126.97;5033897;28;20488;-77
2022/12/07 10:42:01;;;;;;;8.18;4.70;;;;;;;7.12;86.84;102122.31;5017192;28;20120;-77
2022/12/07 10:44:35;;;;;;;6.45;4.32;;;;;;;7.01;89.76;102108.00;5017288;28;20475;-77
2022/12/07 10:47:22;;;;;;;33.28;13.32;;;;;;;7.31;87.12;102105.69;5033844;28;20032;-77
2022/12/07 10:50:18;;;;;;;37.90;13.93;;;;;;;5.94;92.82;102100.91;5017270;28;20039;-78
2022/12/07 10:53:25;;;;;;;35.90;14.18;;;;;;;6.00;97.21;102117.44;5034689;28;20034;-77
2022/12/07 10:56:03;;;;;;;14.00;7.95;;;;;;;6.39;91.46;102118.97;5032865;28;20045;-77
2022/12/07 10:58:47;;;;;;;8.80;4.80;;;;;;;7.05;86.90;102124.63;5017052;28;20072;-78
2022/12/07 11:01:30;;;;;;;13.98;6.15;;;;;;;7.25;85.11;102115.91;5032880;28;20069;-77
2022/12/07 11:04:15;;;;;;;9.68;5.38;;;;;;;7.18;88.46;102119.19;5034367;28;20033;-77
2022/12/07 11:06:47;;;;;;;11.77;4.47;;;;;;;6.84;90.64;102111.09;5033045;28;20041;-77
2022/12/07 11:09:24;;;;;;;8.90;5.47;;;;;;;7.42;88.79;102109.22;5033045;28;20030;-77
2022/12/07 11:12:17;;;;;;;10.95;6.05;;;;;;;7.21;90.20;102109.09;5032741;28;20036;-77
2022/12/07 11:15:04;;;;;;;13.35;6.63;;;;;;;7.27;88.62;102110.41;5016616;28;20083;-77
2022/12/07 11:17:49;;;;;;;13.88;6.22;;;;;;;6.95;93.05;102096.91;5032861;28;20026;-78
2022/12/07 11:20:52;;;;;;;9.13;4.30;;;;;;;6.24;94.82;102101.44;5016627;28;20052;-78
2022/12/07 11:23:26;;;;;;;12.02;6.60;;;;;;;6.85;92.03;102096.75;5022481;28;20041;-78
2022/12/07 11:26:25;;;;;;;14.15;7.13;;;;;;;6.79;92.47;102095.41;5016225;28;20164;-78
2022/12/07 11:28:51;;;;;;;8.90;5.82;;;;;;;6.48;94.00;102096.06;5028197;28;20045;-78
2022/12/07 11:31:48;;;;;;;9.43;6.22;;;;;;;6.43;95.24;102096.44;5033862;28;20052;-78
2022/12/07 11:34:38;;;;;;;6.82;3.20;;;;;;;6.54;95.17;102092.94;5016200;28;20510;-78